createdAt,value
2018-09-13T00:00:45.295Z,17.28
2018-09-13T00:01:45.392Z,17.22
2018-09-13T00:02:45.307Z,17.17
2018-09-13T00:03:45.330Z,17.27
2018-09-13T00:04:45.342Z,17.24
2018-09-13T00:05:45.350Z,17.22
2018-09-13T00:06:45.465Z,17.22
2018-09-13T00:07:45.371Z,17.17
2018-09-13T00:08:45.381Z,17.20
2018-09-13T00:09:45.428Z,17.20
2018-09-13T00:10:45.421Z,17.32
2018-09-13T00:11:45.530Z,17.36
2018-09-13T00:12:45.442Z,17.32
2018-09-13T00:13:45.444Z,17.31
2018-09-13T00:14:45.508Z,17.31
2018-09-13T00:15:45.524Z,17.32
2018-09-13T00:16:45.655Z,17.35
2018-09-13T00:17:45.560Z,17.20
2018-09-13T00:18:45.558Z,17.25
2018-09-13T00:19:45.579Z,17.25
2018-09-13T00:20:45.581Z,17.24
2018-09-13T00:21:45.696Z,17.25
2018-09-13T00:22:45.628Z,17.32
2018-09-13T00:23:45.640Z,17.22
2018-09-13T00:24:45.653Z,17.18
2018-09-13T00:25:45.648Z,17.28
2018-09-13T00:26:45.660Z,17.22
2018-09-13T00:27:45.788Z,17.20
2018-09-13T00:28:45.699Z,17.30
2018-09-13T00:29:45.713Z,17.35
2018-09-13T00:30:45.729Z,17.32
2018-09-13T00:31:45.739Z,17.25
2018-09-13T00:32:45.854Z,17.35
2018-09-13T00:33:45.767Z,17.27
2018-09-13T00:34:45.780Z,17.22
2018-09-13T00:35:45.794Z,17.24
2018-09-13T00:36:45.793Z,17.15
2018-09-13T00:37:45.914Z,17.21
2018-09-13T00:38:45.826Z,17.22
2018-09-13T00:39:45.828Z,17.21
2018-09-13T00:40:45.850Z,17.27
2018-09-13T00:41:45.848Z,17.21
2018-09-13T00:42:45.968Z,17.27
2018-09-13T00:43:45.890Z,17.25
2018-09-13T00:44:45.891Z,17.21
2018-09-13T00:45:45.900Z,17.25
2018-09-13T00:46:45.913Z,17.24
2018-09-13T00:47:46.028Z,17.22
2018-09-13T00:48:45.949Z,17.27
2018-09-13T00:49:45.966Z,17.22
2018-09-13T00:50:45.961Z,17.24
2018-09-13T00:51:45.982Z,17.10
2018-09-13T00:52:46.136Z,17.21
2018-09-13T00:53:46.014Z,17.21
2018-09-13T00:54:46.021Z,17.18
2018-09-13T00:55:46.037Z,17.13
2018-09-13T00:56:46.038Z,17.21
2018-09-13T00:57:46.164Z,17.22
2018-09-13T00:58:46.067Z,17.25
2018-09-13T00:59:46.092Z,17.13
2018-09-13T01:00:46.105Z,17.13
2018-09-13T01:01:46.104Z,17.22
2018-09-13T01:02:46.265Z,17.13
2018-09-13T01:03:46.139Z,17.18
2018-09-13T01:04:46.153Z,17.10
2018-09-13T01:05:46.168Z,17.10
2018-09-13T01:06:46.172Z,17.15
2018-09-13T01:07:46.281Z,17.13
2018-09-13T01:08:46.192Z,17.12
2018-09-13T01:09:46.202Z,17.18
2018-09-13T01:10:46.214Z,17.09
2018-09-13T01:11:46.228Z,17.13
2018-09-13T01:12:46.354Z,17.21
2018-09-13T01:13:46.268Z,17.22
2018-09-13T01:14:46.273Z,17.39
2018-09-13T01:15:46.291Z,17.32
2018-09-13T01:16:46.291Z,17.38
2018-09-13T01:17:46.407Z,17.31
2018-09-13T01:18:46.319Z,17.32
2018-09-13T01:19:46.327Z,17.38
2018-09-13T01:20:46.337Z,17.39
2018-09-13T01:21:46.365Z,17.38
2018-09-13T01:22:46.465Z,17.42
2018-09-13T01:23:46.379Z,17.38
2018-09-13T01:24:46.389Z,17.38
2018-09-13T01:25:46.426Z,17.40
2018-09-13T01:26:46.428Z,17.39
2018-09-13T01:27:46.547Z,17.40
2018-09-13T01:28:46.452Z,17.39
2018-09-13T01:29:46.466Z,17.45
2018-09-13T01:30:46.465Z,17.38
2018-09-13T01:31:46.485Z,17.36
2018-09-13T01:32:46.603Z,17.36
2018-09-13T01:33:46.518Z,17.39
2018-09-13T01:34:46.518Z,17.45
2018-09-13T01:35:46.546Z,17.50
2018-09-13T01:36:46.559Z,17.49
2018-09-13T01:37:46.665Z,17.57
2018-09-13T01:38:46.569Z,17.55
2018-09-13T01:39:46.595Z,17.45
2018-09-13T01:40:46.607Z,17.54
2018-09-13T01:41:46.619Z,17.55
2018-09-13T01:42:46.634Z,17.54
2018-09-13T01:43:46.747Z,17.45
2018-09-13T01:44:46.646Z,17.46
2018-09-13T01:45:46.657Z,17.45
2018-09-13T01:46:46.682Z,17.54
2018-09-13T01:47:46.696Z,17.43
2018-09-13T01:48:46.795Z,17.46
2018-09-13T01:49:46.716Z,17.46
2018-09-13T01:50:46.733Z,17.49
2018-09-13T01:51:46.746Z,17.46
2018-09-13T01:52:46.747Z,17.42
2018-09-13T01:53:47.022Z,17.49
2018-09-13T01:54:46.785Z,17.38
2018-09-13T01:55:46.792Z,17.45
2018-09-13T01:56:46.803Z,17.42
2018-09-13T01:57:46.821Z,17.39
2018-09-13T01:58:46.920Z,17.46
2018-09-13T01:59:46.834Z,17.47
2018-09-13T02:00:46.850Z,17.45
2018-09-13T02:01:46.862Z,17.39
2018-09-13T02:02:46.883Z,17.45
2018-09-13T02:03:46.999Z,17.42
2018-09-13T02:04:46.909Z,17.42
2018-09-13T02:05:46.926Z,17.36
2018-09-13T02:06:46.924Z,17.46
2018-09-13T02:07:46.953Z,17.43
2018-09-13T02:08:47.110Z,17.40
2018-09-13T02:09:46.961Z,17.45
2018-09-13T02:10:46.972Z,17.43
2018-09-13T02:11:46.979Z,17.40
2018-09-13T02:12:47.007Z,17.46
2018-09-13T02:13:47.123Z,17.45
2018-09-13T02:14:47.035Z,17.40
2018-09-13T02:15:47.037Z,17.36
2018-09-13T02:16:47.052Z,17.43
2018-09-13T02:17:47.073Z,17.40
2018-09-13T02:18:47.189Z,17.40
2018-09-13T02:19:47.097Z,17.38
2018-09-13T02:20:47.099Z,17.40
2018-09-13T02:21:47.123Z,17.36
2018-09-13T02:22:47.123Z,17.32
2018-09-13T02:23:47.395Z,17.45
2018-09-13T02:24:47.163Z,17.38
2018-09-13T02:25:47.166Z,17.35
2018-09-13T02:26:47.171Z,17.36
2018-09-13T02:27:47.182Z,17.42
2018-09-13T02:28:47.459Z,17.36
2018-09-13T02:29:47.223Z,17.39
2018-09-13T02:30:47.224Z,17.39
2018-09-13T02:31:47.250Z,17.39
2018-09-13T02:32:47.252Z,17.43
2018-09-13T02:33:47.376Z,17.42
2018-09-13T02:34:47.271Z,17.45
2018-09-13T02:35:47.291Z,17.40
2018-09-13T02:36:47.299Z,17.39
2018-09-13T02:37:47.326Z,17.42
2018-09-13T02:38:47.446Z,17.39
2018-09-13T02:39:47.338Z,17.43
2018-09-13T02:40:47.357Z,17.43
2018-09-13T02:41:47.307Z,17.39
2018-09-13T02:42:47.332Z,17.43
2018-09-13T02:43:47.434Z,17.42
2018-09-13T02:44:47.344Z,17.31
2018-09-13T02:47:31.995Z,17.39
2018-09-13T02:48:31.993Z,17.46
2018-09-13T02:49:32.109Z,17.43
2018-09-13T02:50:32.035Z,17.36
2018-09-13T02:51:32.032Z,17.30
2018-09-13T02:52:32.074Z,17.36
2018-09-13T02:53:32.089Z,17.36
2018-09-13T02:54:32.201Z,17.32
2018-09-13T02:55:32.109Z,17.35
2018-09-13T02:56:32.122Z,17.30
2018-09-13T02:57:32.143Z,17.22
2018-09-13T02:58:32.148Z,17.36
2018-09-13T02:59:32.267Z,17.22
2018-09-13T03:00:32.163Z,17.21
2018-09-13T03:01:32.172Z,17.35
2018-09-13T03:02:32.192Z,17.32
2018-09-13T03:03:32.211Z,17.38
2018-09-13T03:04:32.326Z,17.30
2018-09-13T03:05:32.253Z,17.25
2018-09-13T03:06:32.239Z,17.35
2018-09-13T03:07:32.258Z,17.35
2018-09-13T03:08:32.262Z,17.36
2018-09-13T03:09:32.392Z,17.25
2018-09-13T03:10:32.300Z,17.22
2018-09-13T03:11:32.303Z,17.22
2018-09-13T03:12:32.314Z,17.21
2018-09-13T03:13:32.332Z,17.22
2018-09-13T03:14:32.445Z,17.24
2018-09-13T03:15:32.363Z,17.24
2018-09-13T03:16:32.371Z,17.27
2018-09-13T03:17:32.375Z,17.21
2018-09-13T03:18:32.388Z,17.28
2018-09-13T03:19:32.502Z,17.22
2018-09-13T03:20:32.430Z,17.22
2018-09-13T03:21:32.435Z,17.21
2018-09-13T03:22:32.438Z,17.13
2018-09-13T03:23:32.463Z,17.13
2018-09-13T03:27:32.606Z,17.20
2018-09-13T03:28:32.533Z,17.13
2018-09-13T03:29:32.526Z,17.24
2018-09-13T03:30:32.547Z,17.17
2018-09-13T03:31:32.496Z,17.17
2018-09-13T03:32:32.522Z,17.18
2018-09-13T03:33:32.787Z,17.17
2018-09-13T03:34:32.531Z,17.12
2018-09-13T03:35:32.555Z,17.06
2018-09-13T03:36:32.569Z,17.18
2018-09-13T03:37:32.577Z,17.15
2018-09-13T03:38:32.690Z,17.07
2018-09-13T03:39:32.601Z,17.09
2018-09-13T03:40:32.606Z,17.09
2018-09-13T03:41:32.630Z,17.07
2018-09-13T03:42:32.644Z,17.12
2018-09-13T03:43:32.753Z,17.06
2018-09-13T03:44:32.671Z,17.07
2018-09-13T03:45:32.679Z,17.07
2018-09-13T03:46:32.681Z,17.00
2018-09-13T03:47:32.703Z,16.99
2018-09-13T03:48:32.955Z,17.03
2018-09-13T03:49:32.716Z,17.00
2018-09-13T03:50:32.732Z,17.07
2018-09-13T03:51:32.748Z,17.07
2018-09-13T03:52:32.766Z,17.12
2018-09-13T03:53:32.868Z,17.06
2018-09-13T03:54:32.777Z,17.07
2018-09-13T03:55:32.804Z,17.09
2018-09-13T03:56:32.805Z,17.06
2018-09-13T03:57:32.810Z,17.07
2018-09-13T03:58:32.933Z,17.07
2018-09-13T03:59:32.846Z,17.05
2018-09-13T04:00:32.855Z,17.07
2018-09-13T04:01:32.876Z,17.05
2018-09-13T04:02:32.885Z,17.07
2018-09-13T04:03:32.985Z,16.90
2018-09-13T04:04:32.911Z,16.94
2018-09-13T04:05:32.913Z,16.92
2018-09-13T04:06:32.928Z,16.94
2018-09-13T04:07:32.955Z,16.91
2018-09-13T04:08:33.063Z,16.95
2018-09-13T04:09:32.978Z,16.97
2018-09-13T04:10:32.987Z,16.95
2018-09-13T04:11:32.999Z,16.90
2018-09-13T04:12:33.010Z,16.91
2018-09-13T04:13:33.115Z,16.88
2018-09-13T04:14:33.040Z,16.84
2018-09-13T04:15:33.037Z,16.76
2018-09-13T04:16:33.059Z,16.80
2018-09-13T04:17:33.060Z,16.80
2018-09-13T04:18:33.205Z,16.66
2018-09-13T04:19:33.102Z,16.72
2018-09-13T04:20:33.113Z,16.72
2018-09-13T04:21:33.117Z,16.74
2018-09-13T04:22:33.153Z,16.70
2018-09-13T04:23:33.291Z,16.72
2018-09-13T04:24:33.146Z,16.66
2018-09-13T04:25:33.165Z,16.70
2018-09-13T04:26:33.183Z,16.72
2018-09-13T04:27:33.195Z,16.69
2018-09-13T04:28:33.298Z,16.65
2018-09-13T04:29:33.215Z,16.72
2018-09-13T04:30:33.219Z,16.62
2018-09-13T04:31:33.240Z,16.67
2018-09-13T04:32:33.260Z,16.65
2018-09-13T04:33:33.369Z,16.67
2018-09-13T04:34:33.266Z,16.74
2018-09-13T04:35:33.390Z,16.66
2018-09-13T04:36:33.309Z,16.67
2018-09-13T04:37:33.318Z,16.70
2018-09-13T04:38:33.577Z,16.67
2018-09-13T04:39:33.341Z,16.66
2018-09-13T04:40:33.339Z,16.66
2018-09-13T04:41:33.563Z,16.57
2018-09-13T04:42:33.366Z,16.62
2018-09-13T04:43:33.576Z,16.62
2018-09-13T04:44:34.346Z,16.62
2018-09-13T04:45:33.428Z,16.65
2018-09-13T04:46:33.422Z,16.67
2018-09-13T04:47:33.422Z,16.62
2018-09-13T04:48:33.446Z,16.69
2018-09-13T04:49:33.460Z,16.57
2018-09-13T04:50:33.575Z,16.65
2018-09-13T04:51:33.470Z,16.58
2018-09-13T04:52:33.483Z,16.55
2018-09-13T04:53:33.497Z,16.57
2018-09-13T04:54:33.510Z,16.57
2018-09-13T04:55:33.519Z,16.59
2018-09-13T04:56:33.687Z,16.54
2018-09-13T04:57:33.544Z,16.54
2018-09-13T04:58:33.566Z,16.55
2018-09-13T04:59:33.581Z,16.62
2018-09-13T05:00:33.595Z,16.55
2018-09-13T05:01:33.707Z,16.55
2018-09-13T05:02:33.614Z,16.49
2018-09-13T05:03:33.630Z,16.59
2018-09-13T05:04:33.628Z,16.62
2018-09-13T05:05:33.647Z,16.55
2018-09-13T05:06:33.819Z,16.54
2018-09-13T05:07:33.665Z,16.62
2018-09-13T05:08:33.674Z,16.54
2018-09-13T05:09:33.697Z,16.58
2018-09-13T05:10:33.709Z,16.55
2018-09-13T05:11:33.974Z,16.63
2018-09-13T05:12:33.724Z,16.57
2018-09-13T05:13:33.749Z,16.59
2018-09-13T05:14:33.750Z,16.63
2018-09-13T05:15:33.769Z,16.54
2018-09-13T05:16:33.886Z,16.65
2018-09-13T05:17:33.792Z,16.63
2018-09-13T05:18:33.799Z,16.63
2018-09-13T05:19:33.807Z,16.63
2018-09-13T05:20:33.821Z,16.59
2018-09-13T05:21:33.949Z,16.58
2018-09-13T05:22:33.860Z,16.72
2018-09-13T05:23:33.869Z,16.69
2018-09-13T05:24:33.880Z,16.69
2018-09-13T05:25:34.088Z,16.65
2018-09-13T05:26:33.999Z,16.63
2018-09-13T05:27:33.915Z,16.62
2018-09-13T05:28:33.927Z,16.73
2018-09-13T05:29:33.941Z,16.74
2018-09-13T05:30:33.964Z,16.76
2018-09-13T05:31:34.270Z,16.73
2018-09-13T05:32:33.968Z,16.76
2018-09-13T05:33:33.974Z,16.69
2018-09-13T05:34:33.985Z,16.77
2018-09-13T05:35:34.010Z,16.73
2018-09-13T05:36:34.125Z,16.62
2018-09-13T05:37:34.038Z,16.73
2018-09-13T05:38:34.250Z,16.69
2018-09-13T05:39:34.059Z,16.70
2018-09-13T05:40:34.062Z,16.72
2018-09-13T05:41:34.236Z,16.76
2018-09-13T05:42:34.085Z,16.67
2018-09-13T05:43:34.117Z,16.70
2018-09-13T05:44:34.143Z,16.63
2018-09-13T05:45:34.129Z,16.59
2018-09-13T05:46:34.236Z,16.67
2018-09-13T05:47:34.154Z,16.70
2018-09-13T05:48:34.169Z,16.73
2018-09-13T05:49:34.185Z,16.63
2018-09-13T05:50:34.190Z,16.70
2018-09-13T05:51:34.364Z,16.58
2018-09-13T05:52:34.208Z,16.67
2018-09-13T05:53:34.225Z,16.66
2018-09-13T05:54:34.239Z,16.69
2018-09-13T05:55:34.250Z,16.62
2018-09-13T05:56:34.367Z,16.81
2018-09-13T05:57:34.267Z,16.66
2018-09-13T05:58:34.281Z,16.70
2018-09-13T05:59:34.307Z,16.72
2018-09-13T06:00:34.317Z,16.76
2018-09-13T06:01:34.571Z,16.76
2018-09-13T06:02:34.340Z,16.65
2018-09-13T06:03:34.353Z,16.66
2018-09-13T06:04:34.355Z,16.70
2018-09-13T06:05:34.360Z,16.69
2018-09-13T06:06:34.379Z,16.66
2018-09-13T06:07:34.496Z,16.70
2018-09-13T06:08:34.412Z,16.70
2018-09-13T06:09:34.423Z,16.70
2018-09-13T06:10:34.446Z,16.66
2018-09-13T06:11:34.450Z,16.66
2018-09-13T06:12:34.950Z,16.72
2018-09-13T06:13:34.523Z,16.72
2018-09-13T06:14:34.474Z,16.74
2018-09-13T06:15:34.703Z,16.70
2018-09-13T06:16:34.498Z,16.66
2018-09-13T06:17:34.509Z,16.77
2018-09-13T06:18:34.678Z,16.69
2018-09-13T06:19:34.552Z,16.72
2018-09-13T06:20:34.558Z,16.70
2018-09-13T06:21:34.567Z,16.81
2018-09-13T06:22:34.589Z,16.70
2018-09-13T06:23:34.705Z,16.73
2018-09-13T06:24:34.599Z,16.69
2018-09-13T06:25:34.608Z,16.69
2018-09-13T06:26:34.622Z,16.74
2018-09-13T06:27:34.639Z,16.73
2018-09-13T06:28:34.796Z,16.84
2018-09-13T06:29:34.673Z,16.77
2018-09-13T06:30:34.669Z,16.80
2018-09-13T06:31:34.691Z,16.80
2018-09-13T06:32:34.708Z,16.81
2018-09-13T06:33:34.867Z,16.72
2018-09-13T06:34:34.728Z,16.76
2018-09-13T06:35:34.746Z,16.81
2018-09-13T06:36:34.756Z,16.76
2018-09-13T06:37:34.767Z,16.84
2018-09-13T06:38:35.029Z,16.81
2018-09-13T06:39:34.989Z,16.81
2018-09-13T06:40:34.796Z,16.76
2018-09-13T06:41:34.811Z,16.80
2018-09-13T06:42:34.910Z,16.85
2018-09-13T06:43:35.075Z,16.80
2018-09-13T06:44:34.836Z,16.82
2018-09-13T06:45:34.857Z,16.74
2018-09-13T06:46:34.863Z,16.76
2018-09-13T06:47:34.875Z,16.74
2018-09-13T06:48:35.027Z,16.73
2018-09-13T06:49:35.302Z,16.74
2018-09-13T06:50:34.928Z,16.80
2018-09-13T06:51:34.930Z,16.80
2018-09-13T06:52:34.937Z,16.81
2018-09-13T06:53:35.052Z,16.84
2018-09-13T06:54:34.976Z,16.85
2018-09-13T06:55:34.984Z,16.80
2018-09-13T06:56:34.989Z,16.74
2018-09-13T06:57:34.999Z,16.77
2018-09-13T06:58:35.164Z,16.69
2018-09-13T06:59:35.025Z,16.76
2018-09-13T07:00:35.043Z,16.74
2018-09-13T07:01:35.046Z,16.73
2018-09-13T07:02:35.151Z,16.66
2018-09-13T07:03:35.190Z,16.70
2018-09-13T07:04:35.098Z,16.67
2018-09-13T07:05:35.096Z,16.59
2018-09-13T07:06:35.111Z,16.65
2018-09-13T07:07:35.123Z,16.73
2018-09-13T07:08:35.337Z,16.59
2018-09-13T07:09:35.141Z,16.67
2018-09-13T07:10:35.163Z,16.74
2018-09-13T07:11:35.180Z,16.70
2018-09-13T07:12:35.381Z,16.67
2018-09-13T07:13:35.288Z,16.72
2018-09-13T07:14:35.214Z,16.72
2018-09-13T07:15:35.220Z,16.63
2018-09-13T07:16:35.231Z,16.67
2018-09-13T07:17:35.452Z,16.72
2018-09-13T07:18:35.414Z,16.69
2018-09-13T07:19:35.276Z,16.57
2018-09-13T07:20:35.274Z,16.63
2018-09-13T07:21:35.285Z,16.67
2018-09-13T07:22:35.315Z,16.70
2018-09-13T07:23:35.633Z,16.62
2018-09-13T07:24:35.329Z,16.72
2018-09-13T07:25:35.345Z,16.69
2018-09-13T07:26:35.350Z,16.74
2018-09-13T07:27:35.379Z,16.65
2018-09-13T07:28:35.386Z,16.66
2018-09-13T07:29:35.499Z,16.69
2018-09-13T07:30:35.402Z,16.57
2018-09-13T07:31:35.424Z,16.69
2018-09-13T07:32:35.424Z,16.70
2018-09-13T07:33:35.438Z,16.69
2018-09-13T07:34:35.705Z,16.65
2018-09-13T07:35:35.459Z,16.72
2018-09-13T07:36:35.506Z,16.58
2018-09-13T07:37:35.502Z,16.57
2018-09-13T07:38:35.515Z,16.59
2018-09-13T07:39:35.526Z,16.67
2018-09-13T07:40:35.634Z,16.63
2018-09-13T07:41:35.535Z,16.66
2018-09-13T07:42:35.717Z,16.70
2018-09-13T07:43:35.552Z,16.65
2018-09-13T07:44:35.580Z,16.70
2018-09-13T07:45:35.680Z,16.73
2018-09-13T07:46:35.597Z,16.70
2018-09-13T07:47:35.617Z,16.72
2018-09-13T07:48:35.636Z,16.76
2018-09-13T07:49:35.718Z,16.76
2018-09-13T07:50:35.793Z,16.72
2018-09-13T07:51:35.659Z,16.72
2018-09-13T07:52:35.675Z,16.73
2018-09-13T07:53:35.686Z,16.74
2018-09-13T07:54:35.900Z,16.74
2018-09-13T07:55:35.838Z,16.74
2018-09-13T07:56:35.730Z,16.72
2018-09-13T07:57:35.743Z,16.77
2018-09-13T07:58:35.752Z,16.72
2018-09-13T07:59:35.761Z,16.73
2018-09-13T08:00:36.078Z,16.70
2018-09-13T08:01:35.794Z,16.69
2018-09-13T08:02:35.805Z,16.74
2018-09-13T08:03:35.817Z,16.73
2018-09-13T08:04:35.816Z,16.66
2018-09-13T08:05:35.927Z,16.74
2018-09-13T08:06:35.841Z,16.69
2018-09-13T08:07:35.864Z,16.69
2018-09-13T08:08:35.869Z,16.70
2018-09-13T08:09:35.868Z,16.70
2018-09-13T08:10:35.998Z,16.72
2018-09-13T08:11:35.909Z,16.82
2018-09-13T08:12:35.923Z,16.73
2018-09-13T08:13:35.930Z,16.72
2018-09-13T08:14:35.957Z,16.73
2018-09-13T08:15:36.065Z,16.69
2018-09-13T08:16:36.372Z,16.72
2018-09-13T08:17:35.969Z,16.72
2018-09-13T08:18:35.987Z,16.73
2018-09-13T08:19:35.994Z,16.69
2018-09-13T08:20:36.107Z,16.73
2018-09-13T08:21:36.090Z,16.73
2018-09-13T08:22:36.031Z,16.74
2018-09-13T08:23:36.260Z,16.73
2018-09-13T08:24:36.063Z,16.70
2018-09-13T08:25:36.168Z,16.72
2018-09-13T08:26:36.097Z,16.70
2018-09-13T08:27:36.094Z,16.77
2018-09-13T08:28:36.116Z,16.74
2018-09-13T08:29:36.116Z,16.76
2018-09-13T08:30:36.239Z,16.70
2018-09-13T08:31:36.152Z,16.80
2018-09-13T08:32:36.164Z,16.77
2018-09-13T08:33:36.176Z,16.76
2018-09-13T08:34:36.220Z,16.80
2018-09-13T08:35:36.301Z,16.76
2018-09-13T08:36:36.216Z,16.74
2018-09-13T08:37:36.208Z,16.72
2018-09-13T08:38:36.236Z,16.81
2018-09-13T08:39:36.248Z,16.81
2018-09-13T08:40:36.557Z,16.73
2018-09-13T08:41:36.273Z,16.81
2018-09-13T08:42:36.276Z,16.77
2018-09-13T08:43:36.288Z,16.70
2018-09-13T08:44:36.318Z,16.70
2018-09-13T08:45:36.422Z,16.76
2018-09-13T08:46:36.339Z,16.74
2018-09-13T08:47:36.383Z,16.69
2018-09-13T08:48:36.361Z,16.69
2018-09-13T08:49:36.359Z,16.70
2018-09-13T08:50:36.637Z,16.73
2018-09-13T08:51:36.397Z,16.80
2018-09-13T08:52:36.403Z,16.76
2018-09-13T08:53:36.416Z,16.70
2018-09-13T08:54:36.435Z,16.82
2018-09-13T08:55:36.438Z,16.85
2018-09-13T08:56:36.555Z,16.84
2018-09-13T08:57:36.464Z,16.88
2018-09-13T08:58:36.484Z,16.88
2018-09-13T08:59:36.485Z,16.90
2018-09-13T09:00:36.541Z,16.88
2018-09-13T09:01:36.609Z,16.90
2018-09-13T09:02:36.520Z,16.85
2018-09-13T09:03:36.535Z,16.85
2018-09-13T09:04:36.558Z,16.91
2018-09-13T09:05:36.559Z,16.91
2018-09-13T09:06:36.754Z,16.76
2018-09-13T09:07:36.584Z,16.90
2018-09-13T09:08:36.607Z,16.85
2018-09-13T09:09:36.605Z,16.87
2018-09-13T09:10:36.621Z,16.88
2018-09-13T09:11:36.780Z,16.88
2018-09-13T09:12:36.652Z,16.85
2018-09-13T09:13:36.675Z,16.82
2018-09-13T09:14:36.685Z,16.88
2018-09-13T09:15:36.690Z,16.94
2018-09-13T09:16:36.852Z,16.90
2018-09-13T09:17:36.715Z,16.91
2018-09-13T09:18:36.758Z,16.90
2018-09-13T09:19:36.728Z,16.90
2018-09-13T09:20:36.737Z,16.85
2018-09-13T09:21:36.855Z,16.87
2018-09-13T09:22:36.769Z,16.87
2018-09-13T09:23:36.779Z,16.97
2018-09-13T09:24:36.791Z,16.97
2018-09-13T09:25:36.819Z,16.90
2018-09-13T09:26:36.914Z,16.88
2018-09-13T09:27:36.845Z,16.91
2018-09-13T09:28:36.839Z,16.88
2018-09-13T09:29:36.861Z,16.90
2018-09-13T09:30:36.863Z,16.88
2018-09-13T09:31:37.137Z,16.88
2018-09-13T09:32:36.890Z,16.87
2018-09-13T09:33:36.901Z,16.90
2018-09-13T09:34:36.978Z,16.87
2018-09-13T09:35:37.129Z,16.91
2018-09-13T09:36:37.045Z,16.97
2018-09-13T09:37:36.960Z,16.87
2018-09-13T09:38:36.973Z,16.88
2018-09-13T09:39:36.971Z,16.90
2018-09-13T09:40:37.040Z,16.95
2018-09-13T09:41:37.110Z,16.95
2018-09-13T09:42:37.018Z,16.97
2018-09-13T09:43:37.027Z,16.94
2018-09-13T09:44:37.035Z,16.99
2018-09-13T09:45:37.046Z,16.94
2018-09-13T09:46:37.313Z,17.09
2018-09-13T09:47:37.088Z,17.10
2018-09-13T09:48:37.109Z,17.02
2018-09-13T09:49:37.097Z,17.09
2018-09-13T09:50:37.191Z,17.13
2018-09-13T09:51:37.473Z,17.09
2018-09-13T09:52:37.137Z,17.12
2018-09-13T09:53:37.433Z,17.10
2018-09-13T09:54:37.162Z,17.09
2018-09-13T09:55:37.181Z,17.17
2018-09-13T09:56:37.288Z,17.13
2018-09-13T09:57:37.213Z,17.12
2018-09-13T09:58:37.426Z,17.20
2018-09-13T09:59:37.221Z,17.15
2018-09-13T10:00:37.236Z,17.13
2018-09-13T10:01:37.350Z,17.18
2018-09-13T10:02:37.260Z,17.12
2018-09-13T10:03:37.288Z,17.13
2018-09-13T10:04:37.311Z,17.09
2018-09-13T10:05:37.297Z,17.13
2018-09-13T10:06:37.480Z,17.12
2018-09-13T10:07:37.323Z,17.12
2018-09-13T10:08:37.345Z,17.22
2018-09-13T10:09:37.385Z,17.27
2018-09-13T10:10:37.361Z,17.24
2018-09-13T10:11:37.471Z,17.25
2018-09-13T10:12:37.390Z,17.22
2018-09-13T10:13:37.400Z,17.27
2018-09-13T10:14:37.818Z,17.25
2018-09-13T10:15:37.419Z,17.35
2018-09-13T10:16:38.149Z,17.22
2018-09-13T10:17:37.456Z,17.25
2018-09-13T10:18:37.460Z,17.35
2018-09-13T10:19:37.471Z,17.35
2018-09-13T10:20:37.505Z,17.30
2018-09-13T10:21:37.759Z,17.36
2018-09-13T10:22:37.515Z,17.32
2018-09-13T10:23:37.545Z,17.35
2018-09-13T10:24:37.549Z,17.36
2018-09-13T10:25:37.553Z,17.28
2018-09-13T10:26:37.664Z,17.39
2018-09-13T10:27:37.585Z,17.30
2018-09-13T10:28:37.631Z,17.38
2018-09-13T10:29:37.855Z,17.36
2018-09-13T10:30:37.827Z,17.36
2018-09-13T10:31:37.882Z,17.32
2018-09-13T10:32:37.642Z,17.36
2018-09-13T10:33:37.899Z,17.35
2018-09-13T10:34:37.679Z,17.38
2018-09-13T10:35:37.685Z,17.38
2018-09-13T10:36:37.800Z,17.36
2018-09-13T10:37:37.701Z,17.50
2018-09-13T10:38:37.929Z,17.45
2018-09-13T10:39:37.734Z,17.47
2018-09-13T10:40:37.817Z,17.46
2018-09-13T10:41:37.861Z,17.50
2018-09-13T10:42:37.777Z,17.47
2018-09-13T10:43:37.793Z,17.46
2018-09-13T10:44:37.801Z,17.46
2018-09-13T10:45:38.212Z,17.49
2018-09-13T10:46:37.931Z,17.40
2018-09-13T10:47:42.163Z,17.47
2018-09-13T10:48:38.262Z,17.47
2018-09-13T10:49:37.861Z,17.47
2018-09-13T10:50:37.870Z,17.52
2018-09-13T10:51:37.991Z,17.54
2018-09-13T10:52:38.183Z,17.65
2018-09-13T10:53:37.920Z,17.55
2018-09-13T10:54:37.938Z,17.52
2018-09-13T10:55:38.025Z,17.54
2018-09-13T10:56:38.206Z,17.60
2018-09-13T10:57:37.973Z,17.68
2018-09-13T10:58:38.064Z,17.60
2018-09-13T10:59:38.005Z,17.62
2018-09-13T11:00:38.411Z,17.76
2018-09-13T11:01:38.128Z,17.77
2018-09-13T11:02:38.040Z,17.73
2018-09-13T11:03:38.120Z,17.77
2018-09-13T11:04:38.060Z,17.79
2018-09-13T11:05:38.309Z,17.80
2018-09-13T11:06:38.341Z,17.81
2018-09-13T11:07:38.103Z,17.77
2018-09-13T11:08:38.309Z,17.73
2018-09-13T11:09:38.119Z,17.74
2018-09-13T11:10:38.297Z,17.69
2018-09-13T11:11:38.395Z,17.74
2018-09-13T11:12:38.159Z,17.79
2018-09-13T11:13:38.213Z,17.73
2018-09-13T11:14:38.197Z,17.76
2018-09-13T11:15:38.403Z,17.69
2018-09-13T11:16:38.313Z,17.68
2018-09-13T11:17:38.227Z,17.68
2018-09-13T11:18:38.246Z,17.62
2018-09-13T11:19:38.264Z,17.66
2018-09-13T11:20:38.271Z,17.63
2018-09-13T11:21:38.392Z,17.68
2018-09-13T11:22:38.290Z,17.66
2018-09-13T11:23:38.311Z,17.62
2018-09-13T11:24:38.347Z,17.80
2018-09-13T11:25:38.334Z,17.73
2018-09-13T11:26:38.449Z,17.77
2018-09-13T11:27:38.355Z,17.86
2018-09-13T11:28:38.579Z,17.76
2018-09-13T11:29:38.381Z,17.69
2018-09-13T11:30:39.073Z,17.80
2018-09-13T11:31:38.521Z,17.77
2018-09-13T11:32:38.417Z,17.65
2018-09-13T11:33:38.449Z,17.81
2018-09-13T11:34:38.461Z,17.83
2018-09-13T11:35:38.471Z,17.79
2018-09-13T11:36:38.578Z,17.87
2018-09-13T11:37:38.501Z,17.90
2018-09-13T11:38:38.511Z,17.87
2018-09-13T11:39:38.749Z,17.86
2018-09-13T11:40:38.718Z,17.87
2018-09-13T11:41:38.646Z,17.88
2018-09-13T11:42:38.553Z,17.88
2018-09-13T11:43:38.966Z,17.92
2018-09-13T11:44:38.591Z,17.98
2018-09-13T11:45:38.602Z,17.99
2018-09-13T11:46:38.723Z,18.03
2018-09-13T11:47:38.625Z,18.08
2018-09-13T11:48:38.664Z,18.06
2018-09-13T11:49:38.642Z,18.21
2018-09-13T11:50:38.660Z,18.23
2018-09-13T11:51:38.940Z,18.27
2018-09-13T11:52:39.090Z,18.29
2018-09-13T11:53:38.719Z,18.32
2018-09-13T11:54:38.730Z,18.39
2018-09-13T11:55:38.744Z,18.38
2018-09-13T11:56:38.842Z,18.42
2018-09-13T11:57:38.767Z,18.42
2018-09-13T11:58:38.798Z,18.34
2018-09-13T11:59:38.807Z,18.39
2018-09-13T12:00:38.807Z,18.45
2018-09-13T12:01:38.979Z,18.50
2018-09-13T12:02:38.843Z,18.49
2018-09-13T12:03:38.900Z,18.49
2018-09-13T12:04:38.856Z,18.65
2018-09-13T12:05:38.879Z,18.61
2018-09-13T12:06:38.991Z,18.66
2018-09-13T12:07:38.906Z,18.63
2018-09-13T12:08:38.916Z,18.75
2018-09-13T12:09:39.040Z,18.76
2018-09-13T12:10:38.945Z,18.71
2018-09-13T12:11:39.060Z,18.72
2018-09-13T12:12:38.991Z,18.82
2018-09-13T12:13:39.005Z,18.87
2018-09-13T12:14:39.018Z,18.93
2018-09-13T12:15:39.030Z,19.06
2018-09-13T12:16:39.131Z,19.07
2018-09-13T12:17:39.061Z,19.16
2018-09-13T12:18:39.057Z,19.25
2018-09-13T12:19:39.077Z,19.20
2018-09-13T12:20:39.101Z,19.27
2018-09-13T12:21:39.369Z,19.24
2018-09-13T12:22:39.226Z,19.34
2018-09-13T12:23:39.144Z,19.31
2018-09-13T12:24:39.167Z,19.32
2018-09-13T12:25:39.177Z,19.31
2018-09-13T12:26:39.279Z,19.49
2018-09-13T12:27:39.294Z,19.47
2018-09-13T12:28:39.224Z,19.49
2018-09-13T12:29:39.225Z,19.47
2018-09-13T12:30:39.251Z,19.52
2018-09-13T12:31:39.424Z,19.52
2018-09-13T12:32:39.296Z,19.63
2018-09-13T12:33:39.351Z,19.64
2018-09-13T12:34:39.305Z,19.75
2018-09-13T12:35:39.332Z,19.75
2018-09-13T12:36:39.591Z,19.82
2018-09-13T12:37:39.359Z,19.78
2018-09-13T12:38:39.370Z,19.75
2018-09-13T12:39:39.375Z,19.80
2018-09-13T12:40:39.399Z,19.87
2018-09-13T12:41:39.414Z,19.82
2018-09-13T12:42:39.537Z,19.87
2018-09-13T12:43:39.454Z,19.97
2018-09-13T12:44:39.473Z,19.98
2018-09-13T12:45:39.481Z,20.08
2018-09-13T12:46:39.495Z,20.18
2018-09-13T12:47:39.827Z,20.27
2018-09-13T12:48:39.534Z,20.30
2018-09-13T12:49:39.546Z,20.35
2018-09-13T12:50:39.566Z,20.34
2018-09-13T12:51:39.600Z,20.35
2018-09-13T12:52:39.750Z,20.40
2018-09-13T12:53:39.604Z,20.51
2018-09-13T12:54:39.622Z,20.58
2018-09-13T12:55:39.645Z,20.72
2018-09-13T12:56:39.779Z,20.74
2018-09-13T12:57:39.775Z,20.88